Time;durP1;ratioP1;P1;durP2;ratioP2;P2;SDS_P1;SDS_P2;PMS_P1;PMS_P2;Temp;Humidity;BMP_temperature;BMP_pressure;BME280_temperature;BME280_humidity;BME280_pressure;Samples;Min_cycle;Max_cycle;Signal;HPM_P1;HPM_P2
2023/05/19 00:01:08;;;;;;;10.60;5.15;;;;;;;9.10;100.00;102283.66;4983053;28;20070;-80
2023/05/19 00:03:36;;;;;;;17.73;6.10;;;;;;;8.98;100.00;102293.38;4967029;28;20054;-81
2023/05/19 00:06:03;;;;;;;10.45;5.20;;;;;;;8.99;100.00;102298.75;4952808;28;20035;-81
2023/05/19 00:08:31;;;;;;;16.38;5.70;;;;;;;8.97;100.00;102288.88;4965117;28;20035;-80
2023/05/19 00:10:57;;;;;;;11.75;5.05;;;;;;;8.99;100.00;102293.28;4949255;28;20042;-80
2023/05/19 00:13:23;;;;;;;13.50;5.30;;;;;;;8.94;100.00;102295.38;4977556;28;20061;-80
2023/05/19 00:15:49;;;;;;;9.98;5.22;;;;;;;8.93;100.00;102290.84;4945002;28;20031;-80
2023/05/19 00:18:16;;;;;;;13.63;5.40;;;;;;;8.92;100.00;102288.19;4972166;28;20478;-81
2023/05/19 00:20:42;;;;;;;12.18;4.50;;;;;;;8.84;100.00;102285.88;4982466;28;20042;-81
2023/05/19 00:23:12;;;;;;;9.25;4.78;;;;;;;8.91;100.00;102292.78;4948043;28;20042;-80
2023/05/19 00:25:37;;;;;;;13.10;4.97;;;;;;;8.93;100.00;102292.72;4944606;28;20038;-80
2023/05/19 00:28:03;;;;;;;13.23;5.40;;;;;;;8.88;100.00;102287.47;4989421;28;20117;-80
2023/05/19 00:30:29;;;;;;;9.93;5.22;;;;;;;8.76;100.00;102274.44;4960024;28;20117;-80
2023/05/19 00:32:54;;;;;;;11.05;4.93;;;;;;;8.82;100.00;102285.03;4954753;28;20142;-81
2023/05/19 00:35:20;;;;;;;11.15;4.97;;;;;;;8.85;100.00;102282.16;4945506;29;20381;-80
2023/05/19 00:37:46;;;;;;;11.60;4.75;;;;;;;8.81;100.00;102280.53;4961233;28;20032;-81
2023/05/19 00:40:12;;;;;;;10.52;4.85;;;;;;;8.86;100.00;102280.31;4957438;28;20062;-81
2023/05/19 00:42:38;;;;;;;11.38;5.00;;;;;;;8.79;100.00;102280.63;4959320;28;20039;-80
2023/05/19 00:45:04;;;;;;;10.07;4.82;;;;;;;8.80;100.00;102276.91;4972164;28;20043;-80
2023/05/19 00:47:30;;;;;;;13.20;4.95;;;;;;;8.74;100.00;102262.66;4959952;28;20035;-80
2023/05/19 00:49:55;;;;;;;14.32;4.80;;;;;;;8.80;100.00;102276.03;4961398;28;20478;-80
2023/05/19 00:52:21;;;;;;;11.80;4.82;;;;;;;8.75;100.00;102269.91;4925398;28;20573;-80
2023/05/19 00:54:46;;;;;;;10.48;4.57;;;;;;;8.69;100.00;102253.81;4964872;28;20042;-80
2023/05/19 00:57:13;;;;;;;16.27;4.80;;;;;;;8.63;100.00;102247.69;4972820;28;20477;-81
2023/05/19 00:59:38;;;;;;;18.42;5.15;;;;;;;8.69;100.00;102259.28;4960864;28;20035;-80
2023/05/19 01:02:04;;;;;;;11.95;4.80;;;;;;;8.72;100.00;102260.00;4951916;28;20046;-81
2023/05/19 01:04:33;;;;;;;10.43;4.85;;;;;;;8.63;100.00;102258.63;4967918;28;20122;-80
2023/05/19 01:06:59;;;;;;;10.32;4.57;;;;;;;8.58;100.00;102260.69;4977747;28;20482;-80
2023/05/19 01:09:25;;;;;;;13.30;4.80;;;;;;;8.56;100.00;102268.09;4978830;28;20038;-81
2023/05/19 01:11:51;;;;;;;11.57;5.13;;;;;;;8.55;100.00;102259.97;4973650;28;22199;-80
2023/05/19 01:14:18;;;;;;;10.18;4.55;;;;;;;8.54;100.00;102259.06;4967269;28;20059;-80
2023/05/19 01:16:57;;;;;;;14.05;4.30;;;;;;;8.48;100.00;102256.66;4976552;28;20473;-81
2023/05/19 01:19:45;;;;;;;11.65;4.25;;;;;;;8.48;100.00;102267.56;4940276;29;20050;-81
2023/05/19 01:22:42;;;;;;;15.55;4.93;;;;;;;8.48;100.00;102273.03;4975717;28;20031;-81
2023/05/19 01:25:31;;;;;;;13.25;4.68;;;;;;;8.44;100.00;102274.09;4979191;28;20489;-80
2023/05/19 01:28:30;;;;;;;11.18;5.03;;;;;;;8.37;100.00;102267.16;4948485;29;20035;-81
2023/05/19 01:30:58;;;;;;;10.10;4.75;;;;;;;8.31;100.00;102265.56;4956118;28;20039;-81
2023/05/19 01:33:25;;;;;;;8.00;4.85;;;;;;;8.31;100.00;102261.97;4939233;28;20039;-81
2023/05/19 01:35:52;;;;;;;11.15;5.07;;;;;;;8.25;100.00;102263.16;4965493;28;20045;-81
2023/05/19 01:38:19;;;;;;;10.75;4.45;;;;;;;8.21;100.00;102266.97;4972344;28;20027;-80
2023/05/19 01:40:48;;;;;;;9.95;4.90;;;;;;;8.10;100.00;102264.75;4961843;28;20043;-81
2023/05/19 01:43:20;;;;;;;12.23;5.05;;;;;;;8.15;100.00;102262.69;4945372;29;20027;-80
2023/05/19 01:45:46;;;;;;;11.55;5.57;;;;;;;8.15;100.00;102256.34;4949232;28;20047;-80
2023/05/19 01:48:13;;;;;;;12.50;5.30;;;;;;;8.14;100.00;102268.22;4945265;29;20427;-80
2023/05/19 01:50:39;;;;;;;12.38;5.18;;;;;;;8.12;100.00;102265.56;4980642;28;20035;-80
2023/05/19 01:53:05;;;;;;;12.85;5.68;;;;;;;8.08;100.00;102263.91;4942919;28;20071;-80
2023/05/19 01:55:30;;;;;;;11.38;5.90;;;;;;;8.14;100.00;102269.09;4944403;28;20066;-80
2023/05/19 01:58:16;;;;;;;12.73;5.57;;;;;;;8.04;100.00;102257.72;4945434;28;20497;-80
2023/05/19 02:01:12;;;;;;;15.85;5.53;;;;;;;8.06;100.00;102269.44;4952495;28;20102;-79
2023/05/19 02:03:44;;;;;;;15.27;5.75;;;;;;;7.96;100.00;102267.22;4933073;28;20182;-80
2023/05/19 02:06:28;;;;;;;15.20;6.22;;;;;;;7.95;100.00;102268.16;4962796;28;20413;-80
2023/05/19 02:09:01;;;;;;;11.30;6.57;;;;;;;7.98;100.00;102266.19;4970752;28;20113;-80
2023/05/19 02:11:30;;;;;;;;;;;;;;;7.97;100.00;102258.06;4938621;28;20441;-80
2023/05/19 02:14:00;;;;;;;13.80;5.85;;;;;;;7.93;100.00;102256.44;4978922;28;19914;-80
2023/05/19 02:16:27;;;;;;;12.60;5.82;;;;;;;7.85;100.00;102249.47;4946567;28;20040;-81
2023/05/19 02:18:54;;;;;;;14.23;6.10;;;;;;;7.91;100.00;102251.94;4955025;28;20414;-80
2023/05/19 02:21:19;;;;;;;14.65;6.57;;;;;;;7.83;100.00;102234.16;4955802;28;20038;-81
2023/05/19 02:23:46;;;;;;;9.90;6.40;;;;;;;7.84;100.00;102239.56;4924806;28;20041;-81
2023/05/19 02:26:11;;;;;;;19.75;6.30;;;;;;;7.87;100.00;102255.78;4936704;28;20046;-81
2023/05/19 02:28:37;;;;;;;10.13;6.35;;;;;;;7.75;100.00;102245.41;4983979;28;20051;-81
2023/05/19 02:31:05;;;;;;;15.20;6.53;;;;;;;7.70;100.00;102240.16;4949319;28;20059;-81
2023/05/19 02:33:30;;;;;;;12.10;6.97;;;;;;;7.63;100.00;102243.25;4944521;28;20065;-81
2023/05/19 02:35:56;;;;;;;17.23;7.38;;;;;;;7.65;100.00;102241.31;4926816;28;20079;-81
2023/05/19 02:38:22;;;;;;;16.63;7.00;;;;;;;7.70;100.00;102248.34;4956090;28;20043;-81
2023/05/19 02:40:47;;;;;;;12.93;6.53;;;;;;;7.65;100.00;102238.59;4966107;28;20038;-80
2023/05/19 02:43:13;;;;;;;14.43;6.70;;;;;;;7.70;100.00;102247.47;4929734;28;20038;-80
2023/05/19 02:45:38;;;;;;;15.77;7.10;;;;;;;7.72;100.00;102251.00;4973739;28;20057;-80
2023/05/19 02:48:04;;;;;;;20.55;7.22;;;;;;;7.70;100.00;102245.59;4956813;28;20293;-80
2023/05/19 02:50:29;;;;;;;12.32;6.60;;;;;;;7.66;100.00;102240.38;4959808;28;20122;-79
2023/05/19 02:52:54;;;;;;;18.33;6.78;;;;;;;7.61;100.00;102248.75;4948109;28;20031;-79
2023/05/19 02:55:20;;;;;;;12.75;6.32;;;;;;;7.69;100.00;102242.94;4956711;28;20049;-79
2023/05/19 02:57:45;;;;;;;13.45;7.05;;;;;;;7.53;100.00;102242.75;4915363;28;20097;-79
2023/05/19 03:00:11;;;;;;;14.55;7.22;;;;;;;7.48;100.00;102233.91;4969158;28;20122;-79
2023/05/19 03:02:37;;;;;;;17.05;7.25;;;;;;;7.43;100.00;102235.91;4945152;28;20454;-79
2023/05/19 03:05:02;;;;;;;15.27;6.95;;;;;;;7.40;100.00;102230.63;4972483;28;20051;-80
2023/05/19 03:07:28;;;;;;;17.65;7.13;;;;;;;7.40;100.00;102231.50;4949368;28;20061;-80
2023/05/19 03:09:53;;;;;;;12.57;6.78;;;;;;;7.40;100.00;102234.22;4933155;28;20401;-79
2023/05/19 03:12:19;;;;;;;11.70;6.80;;;;;;;7.34;100.00;102234.50;4939903;28;20379;-80
2023/05/19 03:14:45;;;;;;;17.67;7.50;;;;;;;7.37;100.00;102242.53;4946880;29;20054;-80
2023/05/19 03:17:11;;;;;;;12.15;7.15;;;;;;;7.36;100.00;102227.13;4948761;28;20047;-80
2023/05/19 03:19:36;;;;;;;13.70;7.50;;;;;;;7.41;100.00;102230.56;4928189;28;20052;-80
2023/05/19 03:22:02;;;;;;;20.38;7.68;;;;;;;7.39;100.00;102246.06;4962551;28;20054;-79
2023/05/19 03:24:28;;;;;;;13.50;7.80;;;;;;;7.35;100.00;102230.81;4928356;28;20039;-78
2023/05/19 03:26:53;;;;;;;13.70;7.82;;;;;;;7.24;100.00;102219.50;4951421;28;20043;-79
2023/05/19 03:29:18;;;;;;;19.25;8.00;;;;;;;7.34;100.00;102239.94;4948204;28;20067;-79
2023/05/19 03:31:44;;;;;;;11.43;7.57;;;;;;;7.33;100.00;102239.06;4955577;28;20077;-80
2023/05/19 03:34:09;;;;;;;14.20;7.55;;;;;;;7.33;100.00;102243.63;4933766;28;20150;-79
2023/05/19 03:36:38;;;;;;;12.05;7.55;;;;;;;7.30;100.00;102239.19;4958084;28;20062;-80
2023/05/19 03:39:08;;;;;;;13.98;7.45;;;;;;;7.30;100.00;102238.31;4959025;28;20118;-79
2023/05/19 03:41:33;;;;;;;19.25;8.45;;;;;;;7.23;100.00;102228.63;4958021;28;20044;-79
2023/05/19 03:43:59;;;;;;;13.15;7.97;;;;;;;7.23;100.00;102236.78;4958039;28;20122;-80
2023/05/19 03:46:24;;;;;;;14.73;8.10;;;;;;;7.31;100.00;102246.44;4936722;28;20035;-80
2023/05/19 03:48:50;;;;;;;18.15;8.00;;;;;;;7.28;100.00;102238.38;4966107;28;20034;-80
2023/05/19 03:51:16;;;;;;;12.60;8.10;;;;;;;7.31;100.00;102245.53;4950083;28;20031;-79
2023/05/19 03:53:41;;;;;;;17.95;8.23;;;;;;;7.33;100.00;102247.25;4936654;28;20050;-80
2023/05/19 03:56:12;;;;;;;14.55;8.48;;;;;;;7.34;100.00;102254.44;4932843;28;20031;-80
2023/05/19 03:58:39;;;;;;;17.45;8.40;;;;;;;7.30;100.00;102257.38;4953376;28;20037;-80
2023/05/19 04:01:05;;;;;;;14.50;8.73;;;;;;;7.32;100.00;102253.63;4957950;28;20106;-80
2023/05/19 04:03:30;;;;;;;14.48;9.23;;;;;;;7.41;100.00;102259.63;4969637;28;20446;-79
2023/05/19 04:05:56;;;;;;;15.65;8.75;;;;;;;7.41;100.00;102257.81;4949257;29;20043;-79
2023/05/19 04:08:21;;;;;;;17.00;8.60;;;;;;;7.45;100.00;102256.72;4989939;28;20117;-79
2023/05/19 04:10:46;;;;;;;19.33;9.20;;;;;;;7.46;100.00;102261.22;4950407;29;20039;-79
2023/05/19 04:13:12;;;;;;;20.80;9.02;;;;;;;7.41;100.00;102257.81;4950215;28;20486;-79
2023/05/19 04:15:37;;;;;;;19.92;9.00;;;;;;;7.45;100.00;102262.16;4948405;29;20047;-79
2023/05/19 04:18:03;;;;;;;22.63;8.63;;;;;;;7.59;100.00;102268.84;4945171;28;20051;-79
2023/05/19 04:20:28;;;;;;;20.92;9.73;;;;;;;7.57;100.00;102271.63;4971434;28;20633;-79
2023/05/19 04:22:53;;;;;;;12.40;8.38;;;;;;;7.55;100.00;102268.97;4915112;29;20426;-79
2023/05/19 04:25:19;;;;;;;19.67;9.30;;;;;;;7.56;100.00;102264.44;4964055;28;20350;-79
2023/05/19 04:27:44;;;;;;;18.98;9.10;;;;;;;7.55;100.00;102265.38;4983488;28;20043;-78
2023/05/19 04:30:11;;;;;;;21.48;9.25;;;;;;;7.59;100.00;102268.84;4967492;28;20427;-79
2023/05/19 04:32:36;;;;;;;16.38;9.75;;;;;;;7.62;100.00;102257.81;4980458;28;20040;-79
2023/05/19 04:35:03;;;;;;;13.65;8.45;;;;;;;7.61;100.00;102270.56;4962087;28;20038;-79
2023/05/19 04:37:28;;;;;;;18.70;10.35;;;;;;;7.62;100.00;102266.00;4961092;28;20046;-80
2023/05/19 04:39:54;;;;;;;24.48;10.23;;;;;;;7.67;100.00;102258.50;4945387;28;20043;-79
2023/05/19 04:42:19;;;;;;;17.38;8.80;;;;;;;7.72;100.00;102264.63;4939937;29;20039;-80
2023/05/19 04:44:47;;;;;;;15.23;9.00;;;;;;;7.78;100.00;102263.47;4965801;28;20362;-81
2023/05/19 04:47:13;;;;;;;15.93;9.20;;;;;;;7.74;100.00;102254.56;4972311;28;20027;-81
2023/05/19 04:49:39;;;;;;;19.65;9.43;;;;;;;7.72;100.00;102262.81;4957923;28;20504;-81
2023/05/19 04:52:12;;;;;;;17.67;9.55;;;;;;;7.84;100.00;102268.66;4955821;29;20039;-81
2023/05/19 04:54:38;;;;;;;20.75;9.55;;;;;;;7.83;100.00;102264.16;4943910;28;20062;-80
2023/05/19 04:57:04;;;;;;;22.98;10.30;;;;;;;7.88;100.00;102265.72;4948029;28;20037;-80
2023/05/19 04:59:30;;;;;;;20.52;9.80;;;;;;;7.91;100.00;102260.13;4967121;28;20039;-79
2023/05/19 05:01:56;;;;;;;20.42;9.88;;;;;;;7.98;100.00;102260.72;4944430;28;20058;-79
2023/05/19 05:04:22;;;;;;;17.52;9.65;;;;;;;8.02;100.00;102256.91;4961867;28;20614;-79
2023/05/19 05:06:48;;;;;;;17.27;9.80;;;;;;;8.03;100.00;102255.06;4944027;28;20066;-79
2023/05/19 05:09:14;;;;;;;17.88;9.80;;;;;;;8.10;100.00;102251.13;4943039;28;20035;-79
2023/05/19 05:11:40;;;;;;;15.30;9.80;;;;;;;8.12;100.00;102245.56;4942247;28;20089;-78
2023/05/19 05:14:06;;;;;;;15.38;9.50;;;;;;;8.18;100.00;102254.38;4931841;28;20486;-78
2023/05/19 05:16:32;;;;;;;27.25;10.40;;;;;;;8.26;100.00;102254.00;4939844;28;20039;-78
2023/05/19 05:18:59;;;;;;;19.90;9.50;;;;;;;8.23;100.00;102230.50;4945075;28;20059;-79
2023/05/19 05:21:25;;;;;;;24.92;10.20;;;;;;;8.56;100.00;102257.16;4949542;29;20130;-78
2023/05/19 05:23:51;;;;;;;19.63;9.90;;;;;;;8.65;100.00;102244.91;4973650;28;20110;-81
2023/05/19 05:26:18;;;;;;;20.85;9.15;;;;;;;8.95;100.00;102250.72;4928308;28;20118;-79
2023/05/19 05:28:44;;;;;;;17.25;9.15;;;;;;;9.11;100.00;102248.06;4969582;28;20453;-79
2023/05/19 05:31:09;;;;;;;15.93;9.27;;;;;;;9.40;100.00;102247.56;4929611;28;20035;-79
2023/05/19 05:33:36;;;;;;;18.35;8.82;;;;;;;9.84;100.00;102256.16;4956504;28;20119;-81
2023/05/19 05:36:01;;;;;;;18.80;8.75;;;;;;;9.94;100.00;102240.13;4953740;28;20072;-80
2023/05/19 05:38:27;;;;;;;13.23;7.93;;;;;;;10.05;100.00;102247.75;4951759;28;21070;-79
2023/05/19 05:40:52;;;;;;;14.18;8.43;;;;;;;10.35;100.00;102250.69;4969620;28;20557;-82
2023/05/19 05:43:18;;;;;;;17.60;7.90;;;;;;;10.64;100.00;102256.38;4924586;28;20049;-82
2023/05/19 05:45:43;;;;;;;17.25;7.65;;;;;;;10.79;100.00;102251.84;4946738;28;20042;-82
2023/05/19 05:48:09;;;;;;;13.80;7.68;;;;;;;11.11;100.00;102251.84;4966729;28;20089;-82
2023/05/19 05:50:35;;;;;;;14.40;7.38;;;;;;;11.30;100.00;102255.28;4920077;29;20130;-79
2023/05/19 05:53:01;;;;;;;19.38;7.50;;;;;;;11.48;100.00;102249.63;4965870;28;20063;-81
2023/05/19 05:55:27;;;;;;;16.80;6.10;;;;;;;11.78;100.00;102253.25;4975314;28;20417;-80
2023/05/19 05:57:53;;;;;;;12.35;6.28;;;;;;;12.04;100.00;102260.91;4954693;28;20042;-80
2023/05/19 06:00:19;;;;;;;15.65;6.30;;;;;;;12.30;100.00;102265.59;4937136;28;20363;-80
2023/05/19 06:02:46;;;;;;;13.07;6.22;;;;;;;11.73;100.00;102260.88;4980509;28;20055;-80
2023/05/19 06:05:12;;;;;;;17.88;6.38;;;;;;;11.85;100.00;102261.13;4927997;28;20023;-79
2023/05/19 06:07:39;;;;;;;7.85;5.30;;;;;;;11.92;100.00;102260.69;4943909;28;20066;-81
2023/05/19 06:10:05;;;;;;;11.80;5.80;;;;;;;12.25;100.00;102254.03;4966872;28;20039;-80
2023/05/19 06:12:31;;;;;;;14.15;5.60;;;;;;;12.22;100.00;102258.84;4954816;28;20043;-81
2023/05/19 06:15:00;;;;;;;19.45;5.72;;;;;;;12.07;100.00;102246.97;4929503;28;20537;-82
2023/05/19 06:17:26;;;;;;;10.18;6.40;;;;;;;11.72;100.00;102253.66;4955302;28;20039;-82
2023/05/19 06:19:51;;;;;;;11.70;5.93;;;;;;;11.86;100.00;102243.69;4963434;28;20047;-82
2023/05/19 06:22:16;;;;;;;13.38;5.63;;;;;;;12.47;100.00;102258.16;4969830;28;20031;-81
2023/05/19 06:24:42;;;;;;;9.25;5.55;;;;;;;12.71;100.00;102257.53;4952413;28;20065;-80
2023/05/19 06:27:07;;;;;;;10.23;5.30;;;;;;;13.02;100.00;102268.25;4970415;28;20397;-79
2023/05/19 06:29:33;;;;;;;11.15;5.35;;;;;;;13.80;100.00;102261.16;4966589;28;20056;-80
2023/05/19 06:31:58;;;;;;;12.07;4.78;;;;;;;13.91;100.00;102268.69;4952535;28;20034;-81
2023/05/19 06:34:24;;;;;;;15.23;5.03;;;;;;;14.06;100.00;102266.69;4960264;28;20046;-80
2023/05/19 06:36:49;;;;;;;9.10;4.53;;;;;;;14.36;100.00;102265.47;4937455;28;20043;-81
2023/05/19 06:39:14;;;;;;;16.27;10.18;;;;;;;14.46;100.00;102269.31;4935005;28;20039;-82
2023/05/19 06:41:40;;;;;;;10.32;5.20;;;;;;;15.14;100.00;102276.25;4955636;28;20043;-81
2023/05/19 06:44:07;;;;;;;10.13;4.68;;;;;;;14.93;100.00;102276.00;4964528;28;20042;-81
2023/05/19 06:46:33;;;;;;;8.55;4.30;;;;;;;15.47;95.22;102271.03;4958782;28;20481;-82
2023/05/19 06:48:59;;;;;;;16.85;4.97;;;;;;;15.60;93.22;102263.56;4949333;29;20039;-82
2023/05/19 06:51:24;;;;;;;12.10;4.85;;;;;;;15.24;95.71;102263.50;4933185;28;20043;-81
2023/05/19 06:53:50;;;;;;;7.95;3.92;;;;;;;15.70;94.47;102258.19;4957832;28;20035;-81
2023/05/19 06:56:17;;;;;;;9.65;4.50;;;;;;;16.37;89.64;102270.44;4958671;28;20039;-83
2023/05/19 06:58:44;;;;;;;11.27;4.35;;;;;;;16.85;80.55;102267.41;4970543;28;20383;-85
2023/05/19 07:01:09;;;;;;;9.07;4.13;;;;;;;16.79;80.47;102265.13;4944724;29;20042;-82
2023/05/19 07:03:35;;;;;;;9.82;3.80;;;;;;;16.81;79.21;102272.28;4972463;28;20046;-83
2023/05/19 07:06:03;;;;;;;6.90;4.07;;;;;;;17.00;82.11;102265.25;4955746;28;20049;-83
2023/05/19 07:08:28;;;;;;;14.30;4.22;;;;;;;17.50;76.48;102278.59;4937246;28;20047;-81
2023/05/19 07:10:54;;;;;;;13.90;4.00;;;;;;;17.32;77.69;102269.97;4908032;29;20098;-79
2023/05/19 07:13:20;;;;;;;11.55;4.22;;;;;;;17.14;78.47;102262.19;4969443;28;20042;-79
2023/05/19 07:15:47;;;;;;;8.65;3.47;;;;;;;17.78;74.05;102263.22;4960279;28;20054;-79
2023/05/19 07:18:13;;;;;;;7.03;3.80;;;;;;;17.76;75.97;102268.00;4944447;28;20054;-80
2023/05/19 07:20:39;;;;;;;6.38;3.72;;;;;;;17.35;73.75;102253.97;4964239;28;20039;-80
2023/05/19 07:23:04;;;;;;;8.48;4.00;;;;;;;17.59;74.85;102259.28;4947867;28;20038;-79
2023/05/19 07:25:29;;;;;;;14.80;3.90;;;;;;;18.30;69.71;102268.81;4943196;28;20046;-80
2023/05/19 07:27:56;;;;;;;11.95;4.30;;;;;;;18.87;68.01;102256.28;4968832;28;20038;-79
2023/05/19 07:30:21;;;;;;;9.20;4.25;;;;;;;18.64;68.33;102257.44;4978862;28;20128;-79
2023/05/19 07:32:47;;;;;;;7.95;4.15;;;;;;;17.66;71.40;102267.03;4950402;28;20122;-80
2023/05/19 07:35:12;;;;;;;12.68;3.92;;;;;;;17.67;72.39;102266.91;4944899;28;20371;-80
2023/05/19 07:37:38;;;;;;;12.43;3.78;;;;;;;17.07;71.44;102258.22;4956059;28;20043;-79
2023/05/19 07:40:05;;;;;;;12.75;4.03;;;;;;;17.64;71.73;102262.53;4983718;28;20047;-79
2023/05/19 07:42:31;;;;;;;10.60;3.05;;;;;;;18.35;70.13;102247.13;4975521;28;20047;-80
2023/05/19 07:44:56;;;;;;;11.88;3.55;;;;;;;18.51;69.64;102246.59;4938877;28;20050;-79
2023/05/19 07:47:22;;;;;;;12.18;2.88;;;;;;;18.44;66.38;102267.59;4948644;28;20034;-80
2023/05/19 07:49:47;;;;;;;12.13;2.80;;;;;;;18.85;66.12;102260.19;4965066;28;20039;-80
2023/05/19 07:52:12;;;;;;;9.02;3.08;;;;;;;19.41;65.07;102265.13;4961623;28;20090;-79
2023/05/19 07:54:38;;;;;;;6.05;3.20;;;;;;;19.34;63.94;102261.16;4971226;28;20051;-80
2023/05/19 07:57:03;;;;;;;6.63;2.88;;;;;;;19.23;62.36;102256.63;4972714;28;20397;-79
2023/05/19 07:59:30;;;;;;;8.68;2.55;;;;;;;18.91;62.57;102263.28;4964023;28;20043;-79
2023/05/19 08:01:55;;;;;;;6.20;2.15;;;;;;;19.67;59.12;102260.91;4946894;29;20043;-79
2023/05/19 08:04:21;;;;;;;13.50;3.00;;;;;;;19.45;59.82;102260.16;4943630;28;20046;-79
2023/05/19 08:06:46;;;;;;;11.18;3.13;;;;;;;19.70;59.65;102255.91;4979434;28;20114;-79
2023/05/19 08:09:12;;;;;;;22.58;3.25;;;;;;;19.80;57.83;102255.94;4949868;29;20091;-79
2023/05/19 08:11:37;;;;;;;8.65;2.10;;;;;;;20.37;56.64;102259.63;4975400;28;20039;-79
2023/05/19 08:14:03;;;;;;;8.13;2.53;;;;;;;20.26;56.69;102253.38;4941256;29;20094;-78
2023/05/19 08:16:28;;;;;;;5.20;2.33;;;;;;;19.97;56.16;102254.28;4947752;28;20031;-79
2023/05/19 08:18:54;;;;;;;10.82;2.08;;;;;;;20.68;52.39;102262.16;4952985;28;20071;-79
2023/05/19 08:21:20;;;;;;;11.43;2.00;;;;;;;21.26;50.66;102244.22;4948828;28;20031;-81
2023/05/19 08:23:46;;;;;;;6.10;2.17;;;;;;;20.35;53.66;102246.91;4929395;28;20039;-79
2023/05/19 08:26:11;;;;;;;6.57;1.98;;;;;;;19.98;54.58;102242.16;4976552;28;20062;-79
2023/05/19 08:28:37;;;;;;;3.78;1.80;;;;;;;20.87;54.60;102244.50;4985220;28;20111;-79
2023/05/19 08:31:02;;;;;;;6.35;1.70;;;;;;;20.56;54.70;102229.94;4944117;28;20038;-79
2023/05/19 08:33:28;;;;;;;5.88;1.63;;;;;;;21.03;50.33;102227.09;4957759;28;20039;-79
2023/05/19 08:35:56;;;;;;;8.52;2.30;;;;;;;20.31;52.32;102224.06;4912582;29;20090;-79
2023/05/19 08:38:22;;;;;;;7.07;1.60;;;;;;;21.02;47.39;102219.78;4957128;28;20066;-79
2023/05/19 08:40:47;;;;;;;9.70;1.77;;;;;;;20.59;49.46;102218.50;4973831;28;20122;-79
2023/05/19 08:43:13;;;;;;;7.28;1.75;;;;;;;20.80;49.45;102211.84;4976620;28;20505;-79
2023/05/19 08:45:42;;;;;;;6.85;1.50;;;;;;;20.72;49.26;102207.94;4931930;28;20039;-79
2023/05/19 08:48:08;;;;;;;10.15;1.58;;;;;;;21.32;49.21;102203.72;4952793;28;20031;-79
2023/05/19 08:50:38;;;;;;;7.15;1.77;;;;;;;21.16;46.73;102204.44;4947248;28;20520;-79
2023/05/19 08:53:15;;;;;;;7.53;1.40;;;;;;;21.10;45.62;102193.91;4969478;28;20024;-79
2023/05/19 08:55:57;;;;;;;8.75;1.52;;;;;;;20.65;47.85;102208.72;4954911;28;20046;-80
2023/05/19 08:58:23;;;;;;;;;;;;;;;21.44;43.88;102213.56;4964346;28;20058;-79
2023/05/19 09:00:52;;;;;;;4.57;1.50;;;;;;;20.75;45.15;102206.75;4989936;28;19910;-79
2023/05/19 09:03:18;;;;;;;7.20;1.20;;;;;;;21.30;44.62;102197.44;4943873;28;20052;-79
2023/05/19 09:05:45;;;;;;;7.70;1.33;;;;;;;21.18;45.81;102194.00;4960921;28;20028;-79
2023/05/19 09:08:11;;;;;;;4.70;1.08;;;;;;;21.44;45.49;102191.28;4964411;28;20031;-80
2023/05/19 09:10:36;;;;;;;7.18;1.52;;;;;;;21.22;43.18;102202.94;4932924;28;20031;-80
2023/05/19 09:13:03;;;;;;;5.43;1.15;;;;;;;21.42;41.51;102200.84;4949639;28;20486;-80
2023/05/19 09:15:30;;;;;;;4.00;1.30;;;;;;;21.00;43.10;102191.19;4969817;28;20042;-80
2023/05/19 09:18:06;;;;;;;4.38;1.15;;;;;;;20.90;44.49;102193.19;4966331;28;20055;-80
2023/05/19 09:20:35;;;;;;;10.05;1.77;;;;;;;21.28;46.92;102192.03;4962137;28;20031;-79
2023/05/19 09:23:00;;;;;;;19.15;1.40;;;;;;;20.65;44.72;102200.38;4966955;28;20035;-80
2023/05/19 09:25:26;;;;;;;4.38;1.20;;;;;;;19.61;47.98;102188.22;4965131;28;20041;-80
2023/05/19 09:27:53;;;;;;;6.68;1.45;;;;;;;21.20;45.01;102179.91;4982527;28;20031;-80
2023/05/19 09:30:20;;;;;;;9.05;1.42;;;;;;;20.68;47.68;102183.38;4938771;28;20033;-80
2023/05/19 09:32:45;;;;;;;7.80;1.58;;;;;;;20.86;45.93;102187.06;4948710;29;20046;-80
2023/05/19 09:35:12;;;;;;;7.90;1.50;;;;;;;21.40;41.43;102191.78;4977860;28;20110;-83
2023/05/19 09:37:42;;;;;;;4.93;1.17;;;;;;;20.81;44.35;102185.75;4955848;28;20039;-79
2023/05/19 09:40:08;;;;;;;5.15;1.10;;;;;;;21.06;42.95;102178.56;4954217;28;20043;-78
2023/05/19 09:42:37;;;;;;;5.82;1.30;;;;;;;20.89;44.57;102181.19;4947642;28;20039;-79
2023/05/19 09:45:03;;;;;;;6.47;1.80;;;;;;;20.61;43.64;102171.94;4963488;28;20114;-79
2023/05/19 09:47:37;;;;;;;6.07;1.65;;;;;;;20.29;45.98;102164.91;4967981;28;20086;-80
2023/05/19 09:50:13;;;;;;;7.60;1.65;;;;;;;20.28;43.99;102168.72;4944210;28;20485;-80
2023/05/19 09:52:42;;;;;;;7.93;1.50;;;;;;;21.02;43.27;102180.78;4962156;28;20035;-80
2023/05/19 09:55:11;;;;;;;5.40;1.33;;;;;;;21.51;42.63;102179.53;4966234;28;20031;-80
2023/05/19 09:57:38;;;;;;;6.88;1.30;;;;;;;20.99;42.90;102171.84;4965551;28;20043;-80
2023/05/19 10:00:16;;;;;;;5.22;1.45;;;;;;;21.55;42.27;102169.81;4982305;28;20473;-78
2023/05/19 10:02:44;;;;;;;7.85;1.42;;;;;;;20.90;42.61;102173.69;4957633;28;20043;-79
2023/05/19 10:05:20;;;;;;;5.93;1.63;;;;;;;20.38;42.20;102168.69;4962206;28;20153;-79
2023/05/19 10:07:50;;;;;;;6.13;1.38;;;;;;;20.66;43.72;102175.16;4966310;28;20043;-78
2023/05/19 10:10:16;;;;;;;7.00;1.42;;;;;;;19.54;47.25;102175.06;4959766;28;20031;-80
2023/05/19 10:12:42;;;;;;;4.95;1.40;;;;;;;20.10;45.73;102177.00;4967517;28;20030;-81
2023/05/19 10:15:18;;;;;;;6.50;1.30;;;;;;;20.42;44.01;102177.63;4948140;28;20493;-80
2023/05/19 10:17:44;;;;;;;7.93;1.35;;;;;;;20.71;43.14;102188.59;4953543;28;20042;-80
2023/05/19 10:20:14;;;;;;;5.65;2.00;;;;;;;20.33;45.88;102173.81;4978716;28;20401;-79
2023/05/19 10:22:41;;;;;;;6.13;1.33;;;;;;;21.54;42.14;102180.06;4985696;28;20046;-80
2023/05/19 10:25:08;;;;;;;10.45;1.40;;;;;;;21.74;42.08;102177.09;4986568;28;20126;-80
2023/05/19 10:27:48;;;;;;;9.57;1.52;;;;;;;21.46;45.10;102166.94;4965823;28;20163;-80
2023/05/19 10:30:19;;;;;;;8.00;1.55;;;;;;;20.84;43.49;102160.38;4944610;28;20031;-80
2023/05/19 10:32:50;;;;;;;6.78;1.70;;;;;;;20.65;44.27;102167.84;4974624;28;20026;-80
2023/05/19 10:35:47;;;;;;;5.03;1.15;;;;;;;20.35;45.18;102157.88;4974778;28;20046;-80
2023/05/19 10:38:15;;;;;;;5.22;1.77;;;;;;;20.74;44.61;102161.34;4966662;28;20033;-80
2023/05/19 10:41:30;;;;;;;6.45;1.60;;;;;;;20.96;42.03;102138.78;4971334;28;20031;-80
2023/05/19 10:44:35;;;;;;;6.47;1.30;;;;;;;20.87;43.01;102143.38;4877855;29;20041;-81
2023/05/19 10:47:06;;;;;;;5.32;1.20;;;;;;;21.49;42.31;102149.03;4946243;28;20434;-80
2023/05/19 10:49:35;;;;;;;5.22;1.67;;;;;;;21.26;42.02;102143.06;4966483;28;20509;-80
2023/05/19 10:52:00;;;;;;;5.15;1.20;;;;;;;21.45;39.89;102131.72;4953977;28;20405;-80
2023/05/19 10:54:39;;;;;;;14.05;1.45;;;;;;;21.60;44.67;102153.50;4973459;28;20041;-80
2023/05/19 10:57:05;;;;;;;3.17;1.10;;;;;;;21.15;41.86;102141.38;4944987;28;20027;-80
2023/05/19 10:59:38;;;;;;;8.25;1.67;;;;;;;20.12;44.23;102135.13;4980677;28;20035;-80
2023/05/19 11:02:05;;;;;;;5.32;1.50;;;;;;;20.86;42.93;102127.72;4974972;28;20118;-80
2023/05/19 11:04:52;;;;;;;2.45;1.10;;;;;;;21.50;43.95;102134.06;4961428;28;20027;-80
2023/05/19 11:07:20;;;;;;;6.38;1.35;;;;;;;21.72;42.46;102142.94;4980456;28;20035;-80
2023/05/19 11:09:52;;;;;;;4.82;1.30;;;;;;;21.65;41.44;102142.72;4939173;28;20062;-80
2023/05/19 11:12:21;;;;;;;;;;;;;;;21.47;41.26;102148.28;4966358;28;20031;-80
2023/05/19 11:14:47;;;;;;;5.75;1.45;;;;;;;20.89;43.08;102135.72;4962217;28;19918;-80
2023/05/19 11:17:20;;;;;;;5.60;1.30;;;;;;;20.04;42.79;102137.78;4962276;28;20042;-80
2023/05/19 11:19:54;;;;;;;7.03;1.40;;;;;;;21.08;42.79;102141.16;4966942;28;20654;-80
2023/05/19 11:22:24;;;;;;;4.97;1.23;;;;;;;20.66;42.96;102132.53;4967597;28;20046;-80